createdAt,value
2024-01-11T00:00:22.020Z,23.96
2024-01-11T00:01:22.129Z,23.97
2024-01-11T00:02:22.203Z,23.97
2024-01-11T00:03:22.168Z,23.97
2024-01-11T00:04:22.264Z,23.97
2024-01-11T00:05:22.327Z,23.96
2024-01-11T00:06:22.347Z,23.97
2024-01-11T00:07:22.329Z,23.97
2024-01-11T00:08:22.454Z,23.97
2024-01-11T00:09:22.392Z,23.96
2024-01-11T00:10:22.356Z,23.97
2024-01-11T00:11:22.379Z,23.97
2024-01-11T00:12:22.338Z,23.97
2024-01-11T00:13:22.327Z,23.96
2024-01-11T00:14:22.452Z,23.96
2024-01-11T00:15:22.320Z,23.96
2024-01-11T00:16:22.281Z,23.96
2024-01-11T00:17:22.308Z,23.96
2024-01-11T00:18:22.494Z,23.96
2024-01-11T00:19:22.281Z,23.96
2024-01-11T00:20:22.250Z,23.95
2024-01-11T00:21:22.211Z,23.96
2024-01-11T00:22:22.189Z,23.96
2024-01-11T00:23:22.242Z,23.95
2024-01-11T00:24:22.186Z,23.95
2024-01-11T00:25:22.161Z,23.94
2024-01-11T00:26:22.280Z,23.95
2024-01-11T00:27:22.140Z,23.95
2024-01-11T00:28:22.132Z,23.95
2024-01-11T00:29:22.205Z,23.95
2024-01-11T00:30:22.133Z,23.95
2024-01-11T00:31:22.130Z,23.96
2024-01-11T00:32:22.192Z,23.96
2024-01-11T00:33:22.175Z,23.96
2024-01-11T00:34:22.113Z,23.96
2024-01-11T00:35:22.232Z,23.96
2024-01-11T00:36:22.204Z,23.96
2024-01-11T00:37:22.234Z,23.96
2024-01-11T00:38:22.342Z,23.97
2024-01-11T00:39:22.360Z,23.96
2024-01-11T00:40:22.384Z,23.97
2024-01-11T00:41:22.480Z,23.96
2024-01-11T00:42:22.480Z,23.97
2024-01-11T00:43:22.539Z,23.96
2024-01-11T00:44:22.607Z,23.96
2024-01-11T00:45:22.638Z,23.96
2024-01-11T00:46:22.690Z,23.97
2024-01-11T00:47:22.823Z,23.97
2024-01-11T00:48:22.894Z,23.96
2024-01-11T00:49:22.863Z,23.97
2024-01-11T00:50:22.953Z,23.97
2024-01-11T00:51:22.888Z,23.96
2024-01-11T00:52:22.871Z,23.97
2024-01-11T00:53:22.896Z,23.97
2024-01-11T00:54:22.869Z,23.97
2024-01-11T00:55:22.847Z,23.98
2024-01-11T00:56:22.899Z,23.97
2024-01-11T00:57:23.038Z,23.97
2024-01-11T00:58:22.806Z,23.97
2024-01-11T00:59:22.828Z,23.97
2024-01-11T01:00:22.770Z,23.97
2024-01-11T01:01:22.889Z,23.97
2024-01-11T01:02:22.951Z,23.97
2024-01-11T01:03:22.949Z,23.97
2024-01-11T01:04:22.951Z,23.98
2024-01-11T01:05:23.062Z,23.97
2024-01-11T01:06:23.115Z,23.97
2024-01-11T01:07:23.086Z,23.97
2024-01-11T01:08:23.172Z,23.97
2024-01-11T01:09:23.188Z,23.97
2024-01-11T01:10:23.254Z,23.97
2024-01-11T01:11:23.318Z,23.97
2024-01-11T01:12:23.336Z,23.97
2024-01-11T01:13:23.352Z,23.96
2024-01-11T01:14:23.379Z,23.97
2024-01-11T01:15:23.308Z,23.98
2024-01-11T01:16:23.327Z,23.97
2024-01-11T01:17:23.307Z,23.98
2024-01-11T01:18:23.399Z,23.97
2024-01-11T01:19:23.301Z,23.98
2024-01-11T01:20:23.348Z,23.97
2024-01-11T01:21:23.280Z,23.98
2024-01-11T01:22:23.261Z,23.98
2024-01-11T01:23:23.295Z,23.98
2024-01-11T01:24:23.244Z,23.98
2024-01-11T01:25:23.301Z,23.98
2024-01-11T01:26:23.310Z,23.99
2024-01-11T01:27:23.246Z,23.98
2024-01-11T01:28:23.237Z,23.98
2024-01-11T01:29:23.309Z,23.98
2024-01-11T01:30:23.227Z,23.98
2024-01-11T01:31:23.227Z,23.99
2024-01-11T01:32:23.497Z,23.98
2024-01-11T01:33:23.289Z,23.98
2024-01-11T01:34:23.321Z,23.98
2024-01-11T01:35:23.315Z,23.99
2024-01-11T01:36:23.179Z,23.99
2024-01-11T01:37:23.163Z,23.99
2024-01-11T01:38:23.196Z,23.99
2024-01-11T01:39:23.159Z,23.99
2024-01-11T01:40:23.130Z,23.99
2024-01-11T01:41:23.185Z,23.99
2024-01-11T01:42:23.127Z,23.99
2024-01-11T01:43:23.110Z,23.99
2024-01-11T01:44:23.167Z,23.99
2024-01-11T01:45:23.102Z,23.99
2024-01-11T01:46:23.132Z,23.99
2024-01-11T01:47:23.282Z,23.99
2024-01-11T01:48:23.615Z,24.00
2024-01-11T01:49:23.429Z,23.99
2024-01-11T01:50:23.373Z,24.00
2024-01-11T01:51:23.373Z,24.00
2024-01-11T01:52:23.548Z,24.00
2024-01-11T01:53:23.496Z,23.99
2024-01-11T01:54:23.333Z,23.99
2024-01-11T01:55:23.331Z,23.99
2024-01-11T01:56:23.361Z,23.99
2024-01-11T01:57:23.310Z,23.99
2024-01-11T01:58:23.300Z,24.00
2024-01-11T01:59:23.309Z,23.99
2024-01-11T02:00:23.282Z,23.99
2024-01-11T02:01:23.330Z,23.99
2024-01-11T02:02:23.312Z,23.99
2024-01-11T02:03:23.283Z,23.99
2024-01-11T02:04:23.230Z,23.99
2024-01-11T02:05:23.319Z,23.99
2024-01-11T02:06:23.282Z,23.99
2024-01-11T02:07:23.206Z,23.99
2024-01-11T02:08:23.182Z,23.99
2024-01-11T02:09:23.167Z,23.99
2024-01-11T02:10:23.144Z,23.99
2024-01-11T02:11:23.211Z,23.99
2024-01-11T02:12:23.157Z,23.99
2024-01-11T02:13:23.114Z,23.99
2024-01-11T02:14:23.244Z,23.99
2024-01-11T02:15:23.119Z,23.99
2024-01-11T02:16:23.098Z,23.99
2024-01-11T02:17:23.138Z,23.99
2024-01-11T02:18:23.275Z,23.99
2024-01-11T02:19:23.175Z,24.00
2024-01-11T02:20:23.113Z,24.00
2024-01-11T02:21:23.085Z,23.99
2024-01-11T02:22:23.066Z,23.99
2024-01-11T02:23:23.147Z,24.00
2024-01-11T02:24:23.054Z,24.00
2024-01-11T02:25:23.056Z,23.99
2024-01-11T02:26:23.156Z,24.00
2024-01-11T02:27:23.110Z,24.00
2024-01-11T02:28:23.155Z,24.00
2024-01-11T02:29:23.208Z,24.00
2024-01-11T02:30:23.222Z,24.00
2024-01-11T02:31:23.284Z,24.01
2024-01-11T02:32:23.264Z,24.00
2024-01-11T02:33:23.315Z,24.00
2024-01-11T02:34:23.186Z,24.00
2024-01-11T02:35:23.179Z,24.00
2024-01-11T02:36:23.157Z,24.00
2024-01-11T02:37:23.128Z,24.01
2024-01-11T02:38:23.193Z,24.01
2024-01-11T02:39:23.132Z,24.01
2024-01-11T02:40:23.116Z,24.01
2024-01-11T02:41:23.147Z,24.01
2024-01-11T02:42:23.100Z,24.01
2024-01-11T02:43:23.073Z,24.01
2024-01-11T02:44:23.138Z,24.01
2024-01-11T02:45:23.054Z,24.01
2024-01-11T02:46:23.045Z,24.01
2024-01-11T02:47:23.057Z,24.01
2024-01-11T02:48:23.093Z,24.01
2024-01-11T02:49:23.071Z,24.01
2024-01-11T02:50:23.040Z,24.01
2024-01-11T02:51:23.002Z,24.01
2024-01-11T02:52:22.984Z,24.01
2024-01-11T02:53:23.017Z,24.00
2024-01-11T02:54:22.965Z,24.01
2024-01-11T02:55:22.958Z,24.01
2024-01-11T02:56:23.005Z,24.01
2024-01-11T02:57:22.954Z,24.01
2024-01-11T02:58:22.998Z,24.01
2024-01-11T02:59:23.067Z,24.01
2024-01-11T03:00:23.092Z,24.00
2024-01-11T03:01:23.164Z,24.00
2024-01-11T03:02:23.250Z,24.00
2024-01-11T03:03:23.268Z,24.01
2024-01-11T03:04:23.274Z,24.01
2024-01-11T03:05:23.339Z,24.01
2024-01-11T03:06:23.541Z,24.01
2024-01-11T03:07:23.415Z,24.00
2024-01-11T03:08:23.548Z,24.00
2024-01-11T03:09:23.500Z,24.01
2024-01-11T03:10:23.542Z,24.00
2024-01-11T03:11:23.755Z,24.01
2024-01-11T03:12:23.659Z,24.00
2024-01-11T03:13:23.713Z,24.00
2024-01-11T03:14:23.781Z,24.00
2024-01-11T03:15:23.792Z,24.05
2024-01-11T03:16:23.827Z,24.11
2024-01-11T03:17:23.871Z,24.12
2024-01-11T03:18:23.999Z,24.10
2024-01-11T03:19:23.838Z,24.07
2024-01-11T03:20:23.944Z,24.04
2024-01-11T03:21:23.822Z,24.02
2024-01-11T03:22:23.811Z,24.00
2024-01-11T03:23:23.828Z,23.97
2024-01-11T03:24:23.790Z,23.95
2024-01-11T03:25:23.760Z,23.92
2024-01-11T03:26:23.774Z,23.89
2024-01-11T03:27:23.744Z,23.88
2024-01-11T03:28:23.739Z,23.87
2024-01-11T03:29:23.803Z,23.83
2024-01-11T03:30:23.765Z,23.79
2024-01-11T03:31:23.738Z,23.77
2024-01-11T03:32:23.820Z,23.75
2024-01-11T03:33:23.931Z,23.73
2024-01-11T03:34:23.761Z,23.72
2024-01-11T03:35:23.711Z,23.68
2024-01-11T03:36:23.687Z,23.66
2024-01-11T03:37:23.675Z,23.62
2024-01-11T03:38:23.683Z,23.61
2024-01-11T03:39:23.671Z,23.62
2024-01-11T03:40:23.691Z,23.61
2024-01-11T03:41:23.704Z,23.59
2024-01-11T03:42:23.661Z,23.56
2024-01-11T03:43:23.680Z,23.55
2024-01-11T03:44:23.726Z,23.56
2024-01-11T03:45:23.674Z,23.55
2024-01-11T03:46:23.670Z,23.54
2024-01-11T03:47:23.678Z,23.52
2024-01-11T03:48:23.796Z,23.50
2024-01-11T03:49:23.737Z,23.49
2024-01-11T03:50:23.686Z,23.49
2024-01-11T03:51:23.631Z,23.49
2024-01-11T03:52:23.634Z,23.50
2024-01-11T03:53:23.674Z,23.49
2024-01-11T03:54:23.684Z,23.47
2024-01-11T03:55:23.639Z,23.45
2024-01-11T03:56:23.681Z,23.45
2024-01-11T03:57:23.629Z,23.44
2024-01-11T03:58:23.650Z,23.45
2024-01-11T03:59:23.637Z,23.44
2024-01-11T04:00:23.620Z,23.43
2024-01-11T04:01:23.652Z,23.43
2024-01-11T04:02:23.676Z,23.42
2024-01-11T04:03:23.701Z,23.42
2024-01-11T04:04:23.665Z,23.42
2024-01-11T04:05:23.854Z,23.40
2024-01-11T04:06:23.885Z,23.39
2024-01-11T04:07:23.693Z,23.37
2024-01-11T04:08:23.768Z,23.36
2024-01-11T04:09:23.726Z,23.37
2024-01-11T04:10:23.742Z,23.36
2024-01-11T04:11:23.790Z,23.35
2024-01-11T04:12:23.788Z,23.35
2024-01-11T04:13:25.496Z,23.35
2024-01-11T04:14:23.883Z,23.34
2024-01-11T04:15:23.826Z,23.34
2024-01-11T04:16:23.885Z,23.33
2024-01-11T04:17:24.053Z,23.33
2024-01-11T04:18:23.964Z,23.33
2024-01-11T04:19:24.321Z,23.32
2024-01-11T04:20:23.974Z,23.30
2024-01-11T04:21:23.970Z,23.29
2024-01-11T04:22:23.994Z,23.30
2024-01-11T04:23:24.122Z,23.29
2024-01-11T04:24:24.050Z,23.30
2024-01-11T04:25:24.056Z,23.27
2024-01-11T04:26:24.137Z,23.27
2024-01-11T04:27:24.156Z,23.26
2024-01-11T04:28:24.144Z,23.26
2024-01-11T04:29:24.228Z,23.26
2024-01-11T04:30:24.246Z,23.26
2024-01-11T04:31:24.255Z,23.25
2024-01-11T04:32:24.303Z,23.24
2024-01-11T04:33:24.395Z,23.23
2024-01-11T04:34:24.428Z,23.23
2024-01-11T04:35:24.415Z,23.24
2024-01-11T04:36:24.420Z,23.23
2024-01-11T04:37:24.452Z,23.23
2024-01-11T04:38:24.480Z,23.22
2024-01-11T04:39:24.438Z,23.21
2024-01-11T04:40:24.454Z,23.21
2024-01-11T04:41:31.751Z,23.18
2024-01-11T04:42:31.744Z,23.21
2024-01-11T04:43:31.764Z,23.20
2024-01-11T04:44:31.837Z,23.19
2024-01-11T04:45:31.782Z,23.18
2024-01-11T04:46:31.813Z,23.17
2024-01-11T04:47:31.863Z,23.16
2024-01-11T04:48:31.989Z,23.17
2024-01-11T04:49:31.932Z,23.18
2024-01-11T04:50:31.909Z,23.18
2024-01-11T04:51:31.872Z,23.17
2024-01-11T04:52:31.901Z,23.17
2024-01-11T04:53:31.937Z,23.16
2024-01-11T04:54:31.911Z,23.16
2024-01-11T04:55:31.929Z,23.16
2024-01-11T04:56:32.020Z,23.15
2024-01-11T04:57:31.946Z,23.16
2024-01-11T04:58:31.986Z,23.15
2024-01-11T04:59:32.002Z,23.15
2024-01-11T05:00:32.030Z,23.14
2024-01-11T05:01:32.054Z,23.14
2024-01-11T05:02:32.156Z,23.14
2024-01-11T05:03:32.087Z,23.13
2024-01-11T05:04:32.065Z,23.13
2024-01-11T05:05:32.078Z,23.11
2024-01-11T05:06:32.110Z,23.10
2024-01-11T05:07:32.122Z,23.10
2024-01-11T05:08:32.126Z,23.11
2024-01-11T05:09:32.117Z,23.11
2024-01-11T05:10:32.136Z,23.11
2024-01-11T05:11:32.218Z,23.10
2024-01-11T05:12:32.157Z,23.10
2024-01-11T05:13:32.164Z,23.10
2024-01-11T05:14:32.241Z,23.10
2024-01-11T05:15:32.203Z,23.09
2024-01-11T05:16:32.231Z,23.09
2024-01-11T05:17:32.304Z,23.07
2024-01-11T05:18:34.627Z,23.07
2024-01-11T05:19:32.336Z,23.07
2024-01-11T05:20:32.297Z,23.06
2024-01-11T05:21:32.287Z,23.07
2024-01-11T05:22:32.296Z,23.07
2024-01-11T05:23:32.358Z,23.06
2024-01-11T05:24:32.291Z,23.06
2024-01-11T05:25:32.315Z,23.07
2024-01-11T05:26:32.380Z,23.06
2024-01-11T05:27:32.342Z,23.06
2024-01-11T05:28:32.347Z,23.06
2024-01-11T05:29:32.388Z,23.06
2024-01-11T05:30:32.439Z,23.04
2024-01-11T05:31:32.491Z,23.03
2024-01-11T05:32:32.530Z,23.02
2024-01-11T05:33:32.576Z,23.01
2024-01-11T05:34:32.578Z,23.02
2024-01-11T05:35:32.458Z,23.02
2024-01-11T05:36:32.491Z,23.04
2024-01-11T05:37:32.473Z,23.03
2024-01-11T05:38:32.506Z,23.03
2024-01-11T05:39:32.466Z,23.01
2024-01-11T05:40:32.475Z,23.02
2024-01-11T05:41:32.524Z,23.01
2024-01-11T05:42:32.493Z,23.01
2024-01-11T05:43:32.514Z,23.01
2024-01-11T05:44:32.571Z,22.99
2024-01-11T05:45:45.377Z,22.99
2024-01-11T05:46:33.942Z,22.99
2024-01-11T05:47:32.601Z,22.98
2024-01-11T05:48:32.621Z,22.99
2024-01-11T05:49:32.563Z,22.98
2024-01-11T05:50:32.559Z,22.97
2024-01-11T05:51:32.549Z,22.96
2024-01-11T05:52:32.557Z,22.96
2024-01-11T05:53:32.596Z,22.96
2024-01-11T05:54:32.574Z,22.96
2024-01-11T05:55:32.606Z,22.96
2024-01-11T05:56:32.674Z,22.97
2024-01-11T05:57:32.603Z,22.96
2024-01-11T05:58:32.610Z,22.95
2024-01-11T05:59:32.666Z,22.95
2024-01-11T06:00:32.677Z,22.95
2024-01-11T06:01:32.652Z,22.96
2024-01-11T06:02:32.677Z,22.95
2024-01-11T06:03:32.695Z,22.95
2024-01-11T06:04:32.634Z,22.96
2024-01-11T06:05:32.787Z,22.95
2024-01-11T06:06:32.737Z,22.95
2024-01-11T06:07:32.658Z,22.96
2024-01-11T06:08:32.806Z,22.97
2024-01-11T06:09:32.666Z,23.00
2024-01-11T06:10:32.658Z,23.03
2024-01-11T06:11:32.719Z,23.04
2024-01-11T06:12:32.687Z,23.06
2024-01-11T06:13:32.681Z,23.08
2024-01-11T06:14:32.742Z,23.10
2024-01-11T06:15:32.707Z,23.11
2024-01-11T06:16:32.727Z,23.13
2024-01-11T06:17:32.787Z,23.15
2024-01-11T06:18:32.791Z,23.16
2024-01-11T06:19:32.716Z,23.18
2024-01-11T06:20:32.711Z,23.18
2024-01-11T06:21:32.717Z,23.20
2024-01-11T06:22:32.701Z,23.21
2024-01-11T06:23:32.703Z,23.22
2024-01-11T06:24:32.714Z,23.23
2024-01-11T06:25:32.738Z,23.24
2024-01-11T06:26:32.732Z,23.25
2024-01-11T06:27:32.738Z,23.25
2024-01-11T06:28:34.619Z,23.27
2024-01-11T06:29:32.770Z,23.27
2024-01-11T06:30:32.791Z,23.29
2024-01-11T06:31:32.798Z,23.32
2024-01-11T06:32:32.833Z,23.34
2024-01-11T06:33:32.849Z,23.36
2024-01-11T06:34:32.810Z,23.38
2024-01-11T06:35:32.814Z,23.41
2024-01-11T06:36:32.767Z,23.43
2024-01-11T06:37:32.777Z,23.45
2024-01-11T06:38:32.776Z,23.51
2024-01-11T06:39:33.297Z,23.58
2024-01-11T06:40:32.791Z,23.64
2024-01-11T06:41:32.823Z,23.69
2024-01-11T06:42:32.762Z,23.73
2024-01-11T06:43:32.789Z,23.79
2024-01-11T06:44:32.777Z,23.83
2024-01-11T06:45:32.768Z,23.87
2024-01-11T06:46:32.777Z,23.91
2024-01-11T06:47:32.984Z,23.94
2024-01-11T06:48:32.891Z,23.96
2024-01-11T06:49:32.878Z,24.01
2024-01-11T06:50:32.800Z,24.05
2024-01-11T06:51:32.755Z,24.06
2024-01-11T06:52:32.775Z,24.00
2024-01-11T06:53:32.812Z,23.80
2024-01-11T06:54:32.735Z,23.62
2024-01-11T06:55:32.710Z,23.47
2024-01-11T06:56:32.817Z,23.30
2024-01-11T06:57:32.752Z,23.13
2024-01-11T06:58:32.726Z,22.94
2024-01-11T06:59:32.798Z,22.83
2024-01-11T07:00:32.813Z,22.81
2024-01-11T07:01:32.731Z,22.82
2024-01-11T07:02:32.771Z,22.88
2024-01-11T07:03:32.784Z,22.94
2024-01-11T07:04:34.584Z,23.02
2024-01-11T07:05:32.826Z,23.12
2024-01-11T07:06:32.799Z,23.23
2024-01-11T07:07:32.752Z,23.34
2024-01-11T07:08:32.787Z,23.44
2024-01-11T07:09:32.761Z,23.53
2024-01-11T07:10:32.743Z,23.61
2024-01-11T07:11:32.766Z,23.69
2024-01-11T07:12:32.755Z,23.75
2024-01-11T07:13:32.752Z,23.80
2024-01-11T07:14:32.821Z,23.87
2024-01-11T07:15:32.752Z,23.92
2024-01-11T07:16:32.748Z,23.97
2024-01-11T07:17:32.788Z,24.02
2024-01-11T07:18:32.821Z,24.06
2024-01-11T07:19:33.025Z,24.09
2024-01-11T07:20:32.743Z,24.12
2024-01-11T07:21:32.866Z,24.14
2024-01-11T07:22:32.676Z,24.17
2024-01-11T07:23:32.682Z,24.20
2024-01-11T07:24:32.687Z,24.22
2024-01-11T07:25:32.646Z,24.25
2024-01-11T07:26:32.686Z,24.27
2024-01-11T07:27:32.653Z,24.29
2024-01-11T07:28:32.665Z,24.33
2024-01-11T07:29:32.646Z,24.36
2024-01-11T07:30:32.722Z,24.39
2024-01-11T07:31:32.599Z,24.41
2024-01-11T07:32:32.744Z,24.43
2024-01-11T07:33:32.733Z,24.46
2024-01-11T07:34:32.688Z,24.46
2024-01-11T07:35:32.580Z,24.48
2024-01-11T07:36:32.591Z,24.50
2024-01-11T07:37:32.559Z,24.52
2024-01-11T07:38:32.590Z,24.53
2024-01-11T07:39:32.550Z,24.56
2024-01-11T07:40:34.525Z,24.57
2024-01-11T07:41:32.628Z,24.57
2024-01-11T07:42:32.502Z,24.53
2024-01-11T07:43:41.191Z,24.41
2024-01-11T07:44:33.533Z,24.27
2024-01-11T07:45:32.478Z,24.13
2024-01-11T07:46:38.981Z,24.06
2024-01-11T07:47:32.522Z,24.01
2024-01-11T07:48:32.593Z,24.01
2024-01-11T07:49:32.486Z,24.02
2024-01-11T07:50:32.563Z,24.04
2024-01-11T07:51:32.460Z,24.07
2024-01-11T07:52:32.499Z,24.12
2024-01-11T07:53:32.557Z,24.17
2024-01-11T07:54:32.458Z,24.23
2024-01-11T07:55:32.477Z,24.27
2024-01-11T07:56:32.506Z,24.34
2024-01-11T07:57:32.459Z,24.40
2024-01-11T07:58:32.459Z,24.43
2024-01-11T07:59:32.494Z,24.50
2024-01-11T08:00:32.552Z,24.54
2024-01-11T08:01:32.406Z,24.59
2024-01-11T08:02:32.511Z,24.63
2024-01-11T08:03:32.406Z,24.64
2024-01-11T08:04:32.373Z,24.68
2024-01-11T08:05:32.414Z,24.71
2024-01-11T08:06:32.455Z,24.74
2024-01-11T08:07:32.349Z,24.76
2024-01-11T08:08:32.404Z,24.79
2024-01-11T08:09:32.390Z,24.82
2024-01-11T08:10:32.318Z,24.84
2024-01-11T08:11:33.706Z,24.85
2024-01-11T08:12:32.447Z,24.87
2024-01-11T08:13:32.426Z,24.89
2024-01-11T08:14:32.492Z,24.91
2024-01-11T08:15:32.466Z,24.94
2024-01-11T08:16:32.473Z,24.96
2024-01-11T08:17:32.559Z,24.98
2024-01-11T08:18:32.742Z,24.99
2024-01-11T08:19:32.518Z,25.01
2024-01-11T08:20:32.558Z,25.02
2024-01-11T08:21:32.471Z,25.01
2024-01-11T08:22:32.491Z,25.02
2024-01-11T08:23:32.469Z,25.03
2024-01-11T08:24:32.446Z,25.02
2024-01-11T08:25:32.403Z,24.92
2024-01-11T08:26:32.508Z,24.72
2024-01-11T08:27:32.395Z,24.50
2024-01-11T08:28:32.383Z,24.42
2024-01-11T08:29:32.397Z,24.39
2024-01-11T08:30:32.374Z,24.41
2024-01-11T08:31:32.371Z,24.44
2024-01-11T08:32:32.857Z,24.52
2024-01-11T08:33:32.569Z,24.59
2024-01-11T08:34:32.685Z,24.66
2024-01-11T08:35:32.532Z,24.71
2024-01-11T08:36:32.509Z,24.73
2024-01-11T08:37:32.486Z,24.78
2024-01-11T08:38:32.455Z,24.81
2024-01-11T08:39:32.485Z,24.81
2024-01-11T08:40:32.441Z,24.82
2024-01-11T08:41:32.517Z,24.83
2024-01-11T08:42:32.412Z,24.88
2024-01-11T08:43:32.443Z,24.93
2024-01-11T08:44:32.427Z,25.00
2024-01-11T08:45:32.499Z,25.04
2024-01-11T08:46:32.369Z,25.08
2024-01-11T08:47:32.451Z,25.10
2024-01-11T08:48:32.433Z,25.14
2024-01-11T08:49:32.335Z,25.17
2024-01-11T08:50:32.318Z,25.20
2024-01-11T08:51:32.270Z,25.24
2024-01-11T08:52:32.269Z,25.28
2024-01-11T08:53:32.300Z,25.32
2024-01-11T08:54:32.247Z,25.30
2024-01-11T08:55:32.275Z,25.30
2024-01-11T08:56:32.361Z,25.31
2024-01-11T08:57:32.349Z,25.32
2024-01-11T08:58:32.409Z,25.34
2024-01-11T08:59:32.520Z,25.36
2024-01-11T09:00:32.503Z,25.38
2024-01-11T09:01:32.526Z,25.40
2024-01-11T09:02:32.608Z,25.42
2024-01-11T09:03:32.673Z,25.44
2024-01-11T09:04:32.706Z,25.47
2024-01-11T09:05:32.770Z,25.50
2024-01-11T09:06:32.716Z,25.52
2024-01-11T09:07:32.629Z,25.54
2024-01-11T09:08:32.656Z,25.56
2024-01-11T09:09:36.783Z,25.57
2024-01-11T09:10:33.568Z,25.57
2024-01-11T09:11:32.605Z,25.58
2024-01-11T09:12:32.525Z,25.58
2024-01-11T09:13:32.518Z,25.58
2024-01-11T09:14:32.495Z,25.57
2024-01-11T09:15:32.480Z,25.57
2024-01-11T09:16:32.461Z,25.57
2024-01-11T09:17:32.482Z,25.57
2024-01-11T09:18:32.573Z,25.58
2024-01-11T09:19:32.451Z,25.58
2024-01-11T09:20:32.437Z,25.58
2024-01-11T09:21:32.382Z,25.59
2024-01-11T09:22:32.387Z,25.59
2024-01-11T09:23:32.378Z,25.58
2024-01-11T09:24:36.084Z,25.58
2024-01-11T09:25:33.316Z,25.57
2024-01-11T09:26:32.354Z,25.56
2024-01-11T09:27:32.290Z,25.54
2024-01-11T09:28:32.247Z,25.53
2024-01-11T09:29:32.352Z,25.52
2024-01-11T09:30:32.299Z,25.51
2024-01-11T09:31:32.234Z,25.49
2024-01-11T09:32:32.449Z,25.90
2024-01-11T09:33:32.495Z,26.15
2024-01-11T09:34:32.219Z,25.72
2024-01-11T09:35:32.184Z,25.20
2024-01-11T09:36:32.152Z,24.73
2024-01-11T09:37:32.193Z,24.24
2024-01-11T09:38:32.251Z,23.79
2024-01-11T09:39:32.297Z,23.38
2024-01-11T09:40:32.310Z,23.03
2024-01-11T09:41:32.341Z,22.63
2024-01-11T09:42:32.425Z,22.30
2024-01-11T09:43:32.413Z,21.77
2024-01-11T09:44:32.423Z,21.20
2024-01-11T09:45:32.445Z,20.73
2024-01-11T09:46:32.475Z,20.33
2024-01-11T09:47:32.549Z,20.04
2024-01-11T09:48:32.573Z,19.75
2024-01-11T09:49:32.671Z,19.56
2024-01-11T09:50:32.590Z,19.51
2024-01-11T09:51:32.636Z,19.76
2024-01-11T09:52:33.671Z,20.17
2024-01-11T09:53:32.717Z,20.48
2024-01-11T09:54:32.723Z,20.68
2024-01-11T09:55:32.773Z,20.89
2024-01-11T09:56:32.866Z,21.09
2024-01-11T09:57:32.905Z,21.30
2024-01-11T09:58:32.900Z,21.48
2024-01-11T09:59:33.013Z,21.67
2024-01-11T10:00:33.093Z,21.84
2024-01-11T10:01:33.129Z,21.99
2024-01-11T10:02:33.225Z,22.13
2024-01-11T10:03:33.219Z,22.25
2024-01-11T10:04:33.224Z,22.37
2024-01-11T10:05:33.296Z,22.47
2024-01-11T10:06:33.291Z,22.55
2024-01-11T10:07:33.523Z,22.63
2024-01-11T10:08:33.376Z,22.69
2024-01-11T10:09:33.362Z,22.75
2024-01-11T10:10:33.407Z,22.80
2024-01-11T10:11:33.411Z,22.85
2024-01-11T10:12:33.363Z,22.88
2024-01-11T10:13:33.354Z,22.94
2024-01-11T10:14:33.508Z,22.98
2024-01-11T10:15:33.374Z,23.02
2024-01-11T10:16:33.386Z,23.06
2024-01-11T10:17:33.516Z,23.10
2024-01-11T10:18:33.540Z,23.16
2024-01-11T10:19:33.609Z,23.21
2024-01-11T10:20:33.781Z,23.26
2024-01-11T10:21:33.637Z,23.29
2024-01-11T10:22:33.641Z,23.33
2024-01-11T10:23:33.632Z,23.37
2024-01-11T10:24:33.652Z,23.41
2024-01-11T10:25:33.690Z,23.44
2024-01-11T10:26:33.799Z,23.48
2024-01-11T10:27:33.705Z,23.53
2024-01-11T10:28:33.721Z,23.57
2024-01-11T10:29:33.737Z,23.61
2024-01-11T10:30:33.791Z,23.64
2024-01-11T10:31:33.766Z,23.69
2024-01-11T10:32:33.820Z,23.72
2024-01-11T10:33:33.816Z,23.76
2024-01-11T10:34:33.826Z,23.78
2024-01-11T10:35:33.981Z,23.79
2024-01-11T10:36:33.999Z,23.79
2024-01-11T10:37:33.953Z,23.80
2024-01-11T10:38:34.007Z,23.82
2024-01-11T10:40:28.792Z,23.86
2024-01-11T10:41:28.750Z,23.86
2024-01-11T10:42:28.682Z,23.88
2024-01-11T10:43:28.636Z,23.90
2024-01-11T10:44:28.682Z,23.93
2024-01-11T10:45:28.661Z,23.96
2024-01-11T10:46:28.732Z,23.99
2024-01-11T10:47:28.699Z,24.03
2024-01-11T10:48:28.780Z,24.07
2024-01-11T10:49:28.729Z,24.12
2024-01-11T10:50:28.663Z,24.16
2024-01-11T10:51:28.654Z,24.19
2024-01-11T10:52:28.639Z,24.25
2024-01-11T10:53:29.516Z,24.30
2024-01-11T10:54:28.622Z,24.35
2024-01-11T10:55:28.822Z,24.38
2024-01-11T10:56:28.643Z,24.39
2024-01-11T10:57:28.604Z,24.43
2024-01-11T10:58:28.655Z,24.46
2024-01-11T10:59:28.584Z,24.50
2024-01-11T11:00:28.653Z,24.53
2024-01-11T11:01:28.548Z,24.55
2024-01-11T11:02:28.730Z,24.58
2024-01-11T11:03:28.538Z,24.58
2024-01-11T11:04:28.494Z,24.55
2024-01-11T11:05:28.645Z,24.51
2024-01-11T11:06:28.586Z,24.50
2024-01-11T11:07:28.475Z,24.52
2024-01-11T11:08:28.515Z,24.52
2024-01-11T11:09:28.439Z,24.52
2024-01-11T11:10:28.418Z,24.51
2024-01-11T11:11:28.460Z,24.52
2024-01-11T11:12:28.399Z,24.54
2024-01-11T11:13:28.416Z,24.57
2024-01-11T11:14:28.453Z,24.57
2024-01-11T11:15:28.347Z,24.59
2024-01-11T11:16:28.357Z,24.61
2024-01-11T11:17:28.469Z,24.62
2024-01-11T11:18:28.362Z,24.64
2024-01-11T11:19:28.340Z,24.65
2024-01-11T11:20:28.298Z,24.67
2024-01-11T11:21:28.305Z,24.68
2024-01-11T11:22:28.283Z,24.70
2024-01-11T11:23:28.303Z,24.72
2024-01-11T11:24:28.238Z,24.73
2024-01-11T11:25:28.242Z,24.74
2024-01-11T11:26:28.327Z,24.76
2024-01-11T11:27:28.198Z,24.76
2024-01-11T11:28:28.223Z,24.78
2024-01-11T11:29:28.184Z,24.79
2024-01-11T11:30:28.167Z,24.80
2024-01-11T11:31:28.145Z,24.81
2024-01-11T11:32:28.277Z,24.82
2024-01-11T11:33:28.213Z,24.83
2024-01-11T11:34:28.185Z,24.84
2024-01-11T11:35:28.089Z,24.84
2024-01-11T11:36:28.039Z,24.84
2024-01-11T11:37:28.071Z,24.82
2024-01-11T11:38:28.115Z,24.80
2024-01-11T11:39:28.069Z,24.77
2024-01-11T11:40:27.973Z,24.75
2024-01-11T11:41:28.005Z,24.71
2024-01-11T11:42:27.994Z,24.66
2024-01-11T11:43:27.922Z,24.64
2024-01-11T11:44:27.933Z,24.61
2024-01-11T11:45:27.907Z,24.58
2024-01-11T11:46:27.874Z,24.54
2024-01-11T11:47:27.959Z,24.50
2024-01-11T11:48:27.950Z,24.45
2024-01-11T11:49:27.908Z,24.43
2024-01-11T11:50:27.848Z,24.39
2024-01-11T11:51:29.253Z,24.37
2024-01-11T11:52:27.816Z,24.33
2024-01-11T11:53:27.864Z,24.30
2024-01-11T11:54:27.782Z,24.25
2024-01-11T11:55:27.782Z,24.21
2024-01-11T11:56:27.785Z,24.18
2024-01-11T11:57:27.760Z,24.17
2024-01-11T11:58:27.735Z,24.14
2024-01-11T11:59:27.794Z,24.12
2024-01-11T12:00:27.715Z,24.10
2024-01-11T12:01:27.705Z,24.06
2024-01-11T12:02:27.730Z,24.02
2024-01-11T12:03:27.674Z,23.99
2024-01-11T12:04:27.743Z,23.95
2024-01-11T12:05:27.742Z,23.91
2024-01-11T12:06:27.796Z,23.87
2024-01-11T12:07:27.813Z,23.84
2024-01-11T12:08:27.935Z,23.79
2024-01-11T12:09:27.870Z,23.76
2024-01-11T12:10:27.912Z,23.71
2024-01-11T12:11:28.248Z,23.68
2024-01-11T12:12:28.016Z,23.69
2024-01-11T12:13:27.958Z,23.68
2024-01-11T12:14:28.672Z,23.69
2024-01-11T12:15:27.948Z,23.69
2024-01-11T12:16:27.945Z,23.69
2024-01-11T12:17:28.191Z,23.66
2024-01-11T12:18:28.001Z,23.65
2024-01-11T12:19:28.031Z,23.66
2024-01-11T12:20:27.898Z,23.67
2024-01-11T12:21:27.890Z,23.67
2024-01-11T12:22:27.881Z,23.67
2024-01-11T12:23:27.867Z,23.69
2024-01-11T12:24:27.857Z,23.70
2024-01-11T12:25:27.841Z,23.70
2024-01-11T12:26:27.892Z,23.71
2024-01-11T12:27:27.888Z,23.72
2024-01-11T12:28:27.849Z,23.74
2024-01-11T12:30:27.950Z,23.84
2024-01-11T12:31:27.881Z,23.89
2024-01-11T12:32:27.908Z,23.96
2024-01-11T12:33:28.102Z,24.04
2024-01-11T12:34:27.986Z,24.11
2024-01-11T12:35:28.033Z,24.17
2024-01-11T12:36:28.034Z,24.24
2024-01-11T12:37:28.062Z,24.31
2024-01-11T12:38:28.126Z,24.39
2024-01-11T12:39:28.142Z,24.46
2024-01-11T12:40:28.122Z,24.52
2024-01-11T12:41:28.179Z,24.59
2024-01-11T12:42:28.100Z,24.67
2024-01-11T12:43:28.085Z,24.72
2024-01-11T12:44:28.094Z,24.79
2024-01-11T12:45:28.082Z,24.84
2024-01-11T12:46:28.044Z,24.90
2024-01-11T12:47:28.205Z,24.97
2024-01-11T12:48:28.264Z,25.01
2024-01-11T12:49:28.087Z,25.08
2024-01-11T12:50:28.330Z,25.14
2024-01-11T12:51:27.994Z,25.19
2024-01-11T12:52:27.962Z,25.24
2024-01-11T12:53:28.050Z,25.29
2024-01-11T12:54:27.939Z,25.34